Hudson, IA

2:44 AM CDT on July 07, 2015 (GMT -0500)
Hicks | | Change Station
CLOSE
Current Station
Personal Weather Station
Location: Hudson, IA
Elevation: 958 ft
Nearby Weather Stations

Elev 958 ft 42.36 °N, 92.52 °W | Updated 4 minutes ago

Fog
Fog
59.1 °F
Feels Like 59.1 °F
N
3.0
Wind Variable Wind from NNW
Gusts 3.0 mph

Today
High -- | Low -- °F
--% Chance of Precip.
Yesterday
High -- | Low -- °F
Precip. -- in
5:40 AM 8:48 PM
Waning Gibbous, 67% visible
Pressure 29.98 in
Visibility 2.0 miles
Clouds Clear
Dew Point 58 °F
Humidity 95%
Rainfall 0.00 in
Snow Depth Not available.
UV 0 out of 12
Pollen .60 out of 12
Air Quality Not available.
Flu Activity Not available.
METAR KALO 070654Z 33007KT 2SM BR CLR 15/14 A2998 RMK AO2 SLP150 T01500139

More Conditions Fewer Conditions

Pressure 29.98 in
Visibility 2.0 miles
Clouds Clear
Dew Point 58 °F
Humidity 95%
Rainfall 0.00 in
Snow Depth Not available.
UV 0 out of 12
Pollen .60 out of 12
Air Quality Not available.
Flu Activity Not available.
METAR KALO 070654Z 33007KT 2SM BR CLR 15/14 A2998 RMK AO2 SLP150 T01500139

More Conditions Fewer Conditions

10-Day Weather Forecast

×

Almanac

Astronomy

Jul. 07, 2015 Rise Set
Actual Time
Civil Twilight
Nautical Twilight
Astronomical Twilight
Moon
Length of Visible Light
Length of Day
Tomorrow will be .
, % of the Moon is Illuminated

Today's Extremes

State Highs State Lows

Community

WunderPhotos

Upload Photos

1,835,756 photos uploaded!

WunderBlogs® & News

Nearby

Air Quality

  Air Quality AQ Index Pollutant
Not available.

Snow Depth

Station Depth Elevation

Earthquake Activity

City Distance Mag. Time & Date
Minimum magnitude displayed is 2.5.

Coastal Water Temperatures

Place Temperature

Stations

Nearby Weather Stations

Station Location Temp. Windchill Dew Point Humidity Wind Precip. Elev Updated Type